sensor_id;sensor_type;location;lat;lon;timestamp;P1;durP1;ratioP1;P2;durP2;ratioP2
2474;SDS011;1248;48.694;10.160;2022-09-12T00:01:08;48.97;;;15.40;;
2474;SDS011;1248;48.694;10.160;2022-09-12T00:03:37;125.67;;;19.03;;
2474;SDS011;1248;48.694;10.160;2022-09-12T00:06:08;127.40;;;18.80;;
2474;SDS011;1248;48.694;10.160;2022-09-12T00:08:36;52.07;;;14.83;;
2474;SDS011;1248;48.694;10.160;2022-09-12T00:11:06;103.63;;;16.93;;
2474;SDS011;1248;48.694;10.160;2022-09-12T00:13:34;45.73;;;14.40;;
2474;SDS011;1248;48.694;10.160;2022-09-12T00:16:01;36.53;;;15.17;;
2474;SDS011;1248;48.694;10.160;2022-09-12T00:18:29;50.37;;;13.57;;
2474;SDS011;1248;48.694;10.160;2022-09-12T00:20:57;133.73;;;19.37;;
2474;SDS011;1248;48.694;10.160;2022-09-12T00:23:28;95.33;;;15.93;;
2474;SDS011;1248;48.694;10.160;2022-09-12T00:25:55;82.77;;;16.10;;
2474;SDS011;1248;48.694;10.160;2022-09-12T00:28:23;53.10;;;16.03;;
2474;SDS011;1248;48.694;10.160;2022-09-12T00:30:51;55.13;;;14.83;;
2474;SDS011;1248;48.694;10.160;2022-09-12T00:33:18;46.20;;;15.13;;
2474;SDS011;1248;48.694;10.160;2022-09-12T00:35:46;69.27;;;15.97;;
2474;SDS011;1248;48.694;10.160;2022-09-12T00:38:15;164.43;;;21.00;;
2474;SDS011;1248;48.694;10.160;2022-09-12T00:40:42;212.30;;;25.33;;
2474;SDS011;1248;48.694;10.160;2022-09-12T00:43:10;88.20;;;16.93;;
2474;SDS011;1248;48.694;10.160;2022-09-12T00:45:40;90.23;;;16.40;;
2474;SDS011;1248;48.694;10.160;2022-09-12T00:48:13;66.47;;;16.40;;
2474;SDS011;1248;48.694;10.160;2022-09-12T00:50:43;116.30;;;18.43;;
2474;SDS011;1248;48.694;10.160;2022-09-12T00:53:10;120.93;;;17.80;;
2474;SDS011;1248;48.694;10.160;2022-09-12T00:55:38;178.97;;;22.83;;
2474;SDS011;1248;48.694;10.160;2022-09-12T00:58:08;61.27;;;15.40;;
2474;SDS011;1248;48.694;10.160;2022-09-12T01:00:36;90.57;;;16.43;;
2474;SDS011;1248;48.694;10.160;2022-09-12T01:03:06;98.80;;;18.07;;
2474;SDS011;1248;48.694;10.160;2022-09-12T01:05:34;56.50;;;15.40;;
2474;SDS011;1248;48.694;10.160;2022-09-12T01:08:02;115.00;;;18.03;;
2474;SDS011;1248;48.694;10.160;2022-09-12T01:10:30;67.00;;;16.90;;
2474;SDS011;1248;48.694;10.160;2022-09-12T01:12:59;123.10;;;17.53;;
2474;SDS011;1248;48.694;10.160;2022-09-12T01:15:26;59.97;;;15.00;;
2474;SDS011;1248;48.694;10.160;2022-09-12T01:18:00;145.97;;;20.20;;
2474;SDS011;1248;48.694;10.160;2022-09-12T01:20:41;120.40;;;17.33;;
2474;SDS011;1248;48.694;10.160;2022-09-12T01:23:22;183.17;;;20.07;;
2474;SDS011;1248;48.694;10.160;2022-09-12T01:26:02;175.70;;;18.57;;
2474;SDS011;1248;48.694;10.160;2022-09-12T01:28:43;153.70;;;19.13;;
2474;SDS011;1248;48.694;10.160;2022-09-12T01:31:19;167.17;;;19.27;;
2474;SDS011;1248;48.694;10.160;2022-09-12T01:33:59;184.50;;;20.43;;
2474;SDS011;1248;48.694;10.160;2022-09-12T01:36:33;168.63;;;18.93;;
2474;SDS011;1248;48.694;10.160;2022-09-12T01:39:03;133.00;;;16.40;;
2474;SDS011;1248;48.694;10.160;2022-09-12T01:41:36;156.73;;;20.37;;
2474;SDS011;1248;48.694;10.160;2022-09-12T01:44:09;50.80;;;12.80;;
2474;SDS011;1248;48.694;10.160;2022-09-12T01:46:41;98.47;;;15.43;;
2474;SDS011;1248;48.694;10.160;2022-09-12T01:49:12;107.67;;;17.13;;
2474;SDS011;1248;48.694;10.160;2022-09-12T01:51:42;163.30;;;18.97;;
2474;SDS011;1248;48.694;10.160;2022-09-12T01:54:18;127.33;;;17.30;;
2474;SDS011;1248;48.694;10.160;2022-09-12T01:56:49;153.20;;;19.53;;
2474;SDS011;1248;48.694;10.160;2022-09-12T01:59:19;154.27;;;19.03;;
2474;SDS011;1248;48.694;10.160;2022-09-12T02:01:51;199.03;;;20.70;;
2474;SDS011;1248;48.694;10.160;2022-09-12T02:04:20;150.63;;;20.00;;
2474;SDS011;1248;48.694;10.160;2022-09-12T02:06:51;45.63;;;13.10;;
2474;SDS011;1248;48.694;10.160;2022-09-12T02:09:21;136.33;;;16.90;;
2474;SDS011;1248;48.694;10.160;2022-09-12T02:11:52;197.83;;;21.47;;
2474;SDS011;1248;48.694;10.160;2022-09-12T02:14:23;199.93;;;21.97;;
2474;SDS011;1248;48.694;10.160;2022-09-12T02:16:53;116.40;;;18.40;;
2474;SDS011;1248;48.694;10.160;2022-09-12T02:19:23;166.37;;;20.17;;
2474;SDS011;1248;48.694;10.160;2022-09-12T02:21:54;72.17;;;15.60;;
2474;SDS011;1248;48.694;10.160;2022-09-12T02:24:24;108.70;;;17.40;;
2474;SDS011;1248;48.694;10.160;2022-09-12T02:26:56;129.13;;;18.97;;
2474;SDS011;1248;48.694;10.160;2022-09-12T02:29:26;106.97;;;16.33;;
2474;SDS011;1248;48.694;10.160;2022-09-12T02:31:56;104.30;;;18.90;;
2474;SDS011;1248;48.694;10.160;2022-09-12T02:34:31;60.57;;;16.20;;
2474;SDS011;1248;48.694;10.160;2022-09-12T02:37:04;73.73;;;17.23;;
2474;SDS011;1248;48.694;10.160;2022-09-12T02:39:34;127.80;;;17.37;;
2474;SDS011;1248;48.694;10.160;2022-09-12T02:42:01;76.30;;;14.73;;
2474;SDS011;1248;48.694;10.160;2022-09-12T02:44:29;105.03;;;16.17;;
2474;SDS011;1248;48.694;10.160;2022-09-12T02:46:59;75.43;;;14.20;;
2474;SDS011;1248;48.694;10.160;2022-09-12T02:49:28;110.17;;;19.70;;
2474;SDS011;1248;48.694;10.160;2022-09-12T02:51:55;36.77;;;12.70;;
2474;SDS011;1248;48.694;10.160;2022-09-12T02:54:22;35.50;;;13.50;;
2474;SDS011;1248;48.694;10.160;2022-09-12T02:56:50;80.07;;;13.93;;
2474;SDS011;1248;48.694;10.160;2022-09-12T02:59:17;135.13;;;17.27;;
2474;SDS011;1248;48.694;10.160;2022-09-12T03:01:48;101.97;;;17.37;;
2474;SDS011;1248;48.694;10.160;2022-09-12T03:04:31;165.73;;;19.70;;
2474;SDS011;1248;48.694;10.160;2022-09-12T03:07:19;128.80;;;17.90;;
2474;SDS011;1248;48.694;10.160;2022-09-12T03:09:53;139.07;;;19.33;;
2474;SDS011;1248;48.694;10.160;2022-09-12T03:12:29;185.00;;;21.70;;
2474;SDS011;1248;48.694;10.160;2022-09-12T03:15:09;158.30;;;20.30;;
2474;SDS011;1248;48.694;10.160;2022-09-12T03:17:42;128.77;;;18.17;;
2474;SDS011;1248;48.694;10.160;2022-09-12T03:20:23;119.60;;;18.30;;
2474;SDS011;1248;48.694;10.160;2022-09-12T03:23:02;94.57;;;16.80;;
2474;SDS011;1248;48.694;10.160;2022-09-12T03:25:31;45.37;;;12.47;;
2474;SDS011;1248;48.694;10.160;2022-09-12T03:28:01;83.47;;;16.33;;
2474;SDS011;1248;48.694;10.160;2022-09-12T03:30:36;40.37;;;14.80;;
2474;SDS011;1248;48.694;10.160;2022-09-12T03:33:04;106.87;;;18.00;;
2474;SDS011;1248;48.694;10.160;2022-09-12T03:35:32;122.87;;;18.50;;
2474;SDS011;1248;48.694;10.160;2022-09-12T03:37:59;89.07;;;16.70;;
2474;SDS011;1248;48.694;10.160;2022-09-12T03:40:26;70.80;;;14.47;;
2474;SDS011;1248;48.694;10.160;2022-09-12T03:42:53;70.23;;;15.20;;
2474;SDS011;1248;48.694;10.160;2022-09-12T03:45:20;54.13;;;14.93;;
2474;SDS011;1248;48.694;10.160;2022-09-12T03:47:47;111.93;;;17.37;;
2474;SDS011;1248;48.694;10.160;2022-09-12T03:50:14;107.17;;;16.83;;
2474;SDS011;1248;48.694;10.160;2022-09-12T03:52:42;132.63;;;18.20;;
2474;SDS011;1248;48.694;10.160;2022-09-12T03:55:10;116.27;;;15.57;;
2474;SDS011;1248;48.694;10.160;2022-09-12T03:57:37;106.17;;;16.10;;
2474;SDS011;1248;48.694;10.160;2022-09-12T04:00:04;51.23;;;14.87;;
2474;SDS011;1248;48.694;10.160;2022-09-12T04:02:33;128.70;;;19.83;;
2474;SDS011;1248;48.694;10.160;2022-09-12T04:05:00;104.27;;;16.30;;
2474;SDS011;1248;48.694;10.160;2022-09-12T04:07:27;152.73;;;20.20;;
2474;SDS011;1248;48.694;10.160;2022-09-12T04:09:56;157.47;;;21.90;;
2474;SDS011;1248;48.694;10.160;2022-09-12T04:12:23;45.73;;;13.70;;
2474;SDS011;1248;48.694;10.160;2022-09-12T04:14:50;61.73;;;13.70;;
2474;SDS011;1248;48.694;10.160;2022-09-12T04:17:17;84.63;;;17.53;;
2474;SDS011;1248;48.694;10.160;2022-09-12T04:19:44;40.87;;;14.37;;
2474;SDS011;1248;48.694;10.160;2022-09-12T04:22:11;86.33;;;16.60;;
2474;SDS011;1248;48.694;10.160;2022-09-12T04:24:38;99.60;;;20.07;;
2474;SDS011;1248;48.694;10.160;2022-09-12T04:27:06;95.77;;;16.93;;
2474;SDS011;1248;48.694;10.160;2022-09-12T04:29:33;71.10;;;17.20;;
2474;SDS011;1248;48.694;10.160;2022-09-12T04:32:01;35.03;;;13.73;;
2474;SDS011;1248;48.694;10.160;2022-09-12T04:34:29;40.33;;;14.83;;
2474;SDS011;1248;48.694;10.160;2022-09-12T04:36:56;56.63;;;17.50;;
2474;SDS011;1248;48.694;10.160;2022-09-12T04:39:23;83.77;;;18.10;;
2474;SDS011;1248;48.694;10.160;2022-09-12T04:41:50;119.63;;;20.47;;
2474;SDS011;1248;48.694;10.160;2022-09-12T04:44:19;98.70;;;19.83;;
2474;SDS011;1248;48.694;10.160;2022-09-12T04:46:46;65.37;;;15.20;;
2474;SDS011;1248;48.694;10.160;2022-09-12T04:49:13;42.27;;;13.10;;
2474;SDS011;1248;48.694;10.160;2022-09-12T04:51:42;34.77;;;13.60;;
2474;SDS011;1248;48.694;10.160;2022-09-12T04:54:10;20.80;;;11.07;;
2474;SDS011;1248;48.694;10.160;2022-09-12T04:56:38;36.07;;;13.40;;
2474;SDS011;1248;48.694;10.160;2022-09-12T04:59:07;39.43;;;12.10;;
2474;SDS011;1248;48.694;10.160;2022-09-12T05:01:37;33.20;;;12.63;;
2474;SDS011;1248;48.694;10.160;2022-09-12T05:04:04;109.60;;;18.00;;
2474;SDS011;1248;48.694;10.160;2022-09-12T05:06:34;147.43;;;22.43;;
2474;SDS011;1248;48.694;10.160;2022-09-12T05:09:02;113.40;;;18.60;;
2474;SDS011;1248;48.694;10.160;2022-09-12T05:11:30;95.10;;;18.27;;
2474;SDS011;1248;48.694;10.160;2022-09-12T05:13:58;62.33;;;15.50;;
2474;SDS011;1248;48.694;10.160;2022-09-12T05:16:26;92.10;;;17.90;;
2474;SDS011;1248;48.694;10.160;2022-09-12T05:18:55;56.93;;;15.80;;
2474;SDS011;1248;48.694;10.160;2022-09-12T05:21:23;54.63;;;14.60;;
2474;SDS011;1248;48.694;10.160;2022-09-12T05:23:50;46.03;;;14.30;;
2474;SDS011;1248;48.694;10.160;2022-09-12T05:26:17;33.60;;;15.37;;
2474;SDS011;1248;48.694;10.160;2022-09-12T05:28:46;51.50;;;16.60;;
2474;SDS011;1248;48.694;10.160;2022-09-12T05:31:14;34.23;;;16.60;;
2474;SDS011;1248;48.694;10.160;2022-09-12T05:33:43;47.63;;;18.50;;
2474;SDS011;1248;48.694;10.160;2022-09-12T05:36:13;32.87;;;15.43;;
2474;SDS011;1248;48.694;10.160;2022-09-12T05:38:42;35.40;;;16.53;;
2474;SDS011;1248;48.694;10.160;2022-09-12T05:41:10;43.70;;;15.30;;
2474;SDS011;1248;48.694;10.160;2022-09-12T05:43:38;55.53;;;16.47;;
2474;SDS011;1248;48.694;10.160;2022-09-12T05:46:08;34.40;;;15.10;;
2474;SDS011;1248;48.694;10.160;2022-09-12T05:48:36;56.27;;;16.60;;
2474;SDS011;1248;48.694;10.160;2022-09-12T05:51:04;38.03;;;15.60;;
2474;SDS011;1248;48.694;10.160;2022-09-12T05:53:34;58.80;;;16.70;;
2474;SDS011;1248;48.694;10.160;2022-09-12T05:56:03;66.83;;;18.70;;
2474;SDS011;1248;48.694;10.160;2022-09-12T05:58:31;126.37;;;23.73;;
2474;SDS011;1248;48.694;10.160;2022-09-12T06:01:02;73.95;;;22.65;;
2474;SDS011;1248;48.694;10.160;2022-09-12T06:03:33;51.67;;;18.63;;
2474;SDS011;1248;48.694;10.160;2022-09-12T06:06:02;102.17;;;21.40;;
2474;SDS011;1248;48.694;10.160;2022-09-12T06:08:30;50.90;;;17.60;;
2474;SDS011;1248;48.694;10.160;2022-09-12T06:11:00;147.23;;;25.30;;
2474;SDS011;1248;48.694;10.160;2022-09-12T06:13:27;92.17;;;24.47;;
2474;SDS011;1248;48.694;10.160;2022-09-12T06:15:54;67.80;;;21.47;;
2474;SDS011;1248;48.694;10.160;2022-09-12T06:18:21;49.27;;;19.23;;
2474;SDS011;1248;48.694;10.160;2022-09-12T06:20:48;66.43;;;23.10;;
2474;SDS011;1248;48.694;10.160;2022-09-12T06:23:15;137.10;;;25.80;;
2474;SDS011;1248;48.694;10.160;2022-09-12T06:25:45;117.43;;;27.10;;
2474;SDS011;1248;48.694;10.160;2022-09-12T06:28:15;88.90;;;27.07;;
2474;SDS011;1248;48.694;10.160;2022-09-12T06:30:42;76.73;;;26.07;;
2474;SDS011;1248;48.694;10.160;2022-09-12T06:33:09;78.10;;;27.70;;
2474;SDS011;1248;48.694;10.160;2022-09-12T06:35:36;65.60;;;24.47;;
2474;SDS011;1248;48.694;10.160;2022-09-12T06:38:03;42.93;;;18.37;;
2474;SDS011;1248;48.694;10.160;2022-09-12T06:40:30;105.93;;;27.00;;
2474;SDS011;1248;48.694;10.160;2022-09-12T06:42:58;43.73;;;20.70;;
2474;SDS011;1248;48.694;10.160;2022-09-12T06:45:26;36.67;;;20.00;;
2474;SDS011;1248;48.694;10.160;2022-09-12T06:47:53;48.47;;;20.47;;
2474;SDS011;1248;48.694;10.160;2022-09-12T06:50:21;87.33;;;21.40;;
2474;SDS011;1248;48.694;10.160;2022-09-12T06:52:48;38.50;;;18.63;;
2474;SDS011;1248;48.694;10.160;2022-09-12T06:55:15;25.20;;;18.30;;
2474;SDS011;1248;48.694;10.160;2022-09-12T06:57:43;30.80;;;19.37;;
2474;SDS011;1248;48.694;10.160;2022-09-12T07:00:10;32.83;;;18.77;;
2474;SDS011;1248;48.694;10.160;2022-09-12T07:02:40;30.50;;;17.97;;
2474;SDS011;1248;48.694;10.160;2022-09-12T07:05:07;24.00;;;16.00;;
2474;SDS011;1248;48.694;10.160;2022-09-12T07:07:35;22.10;;;15.37;;
2474;SDS011;1248;48.694;10.160;2022-09-12T07:10:03;25.77;;;16.53;;
2474;SDS011;1248;48.694;10.160;2022-09-12T07:12:31;25.53;;;16.70;;
2474;SDS011;1248;48.694;10.160;2022-09-12T07:14:58;26.47;;;17.07;;
2474;SDS011;1248;48.694;10.160;2022-09-12T07:17:25;24.70;;;16.93;;
2474;SDS011;1248;48.694;10.160;2022-09-12T07:19:54;23.63;;;15.67;;
2474;SDS011;1248;48.694;10.160;2022-09-12T07:22:21;18.10;;;14.70;;
2474;SDS011;1248;48.694;10.160;2022-09-12T07:24:48;21.53;;;14.27;;
2474;SDS011;1248;48.694;10.160;2022-09-12T07:27:15;17.57;;;13.70;;
2474;SDS011;1248;48.694;10.160;2022-09-12T07:29:42;18.37;;;13.77;;
2474;SDS011;1248;48.694;10.160;2022-09-12T07:32:11;18.23;;;12.93;;
2474;SDS011;1248;48.694;10.160;2022-09-12T07:34:38;18.77;;;14.53;;
2474;SDS011;1248;48.694;10.160;2022-09-12T07:37:06;16.30;;;12.80;;
2474;SDS011;1248;48.694;10.160;2022-09-12T07:39:33;18.40;;;12.40;;
2474;SDS011;1248;48.694;10.160;2022-09-12T07:42:00;19.40;;;13.30;;
2474;SDS011;1248;48.694;10.160;2022-09-12T07:44:27;17.50;;;13.00;;
2474;SDS011;1248;48.694;10.160;2022-09-12T07:46:55;14.60;;;11.77;;
2474;SDS011;1248;48.694;10.160;2022-09-12T07:49:22;16.63;;;12.10;;
2474;SDS011;1248;48.694;10.160;2022-09-12T07:51:49;14.07;;;11.20;;
2474;SDS011;1248;48.694;10.160;2022-09-12T07:54:17;14.97;;;11.43;;
2474;SDS011;1248;48.694;10.160;2022-09-12T07:56:44;18.30;;;11.00;;
2474;SDS011;1248;48.694;10.160;2022-09-12T07:59:11;15.10;;;10.90;;
2474;SDS011;1248;48.694;10.160;2022-09-12T08:01:38;16.30;;;12.27;;
2474;SDS011;1248;48.694;10.160;2022-09-12T08:04:06;15.40;;;12.17;;
2474;SDS011;1248;48.694;10.160;2022-09-12T08:06:33;13.47;;;10.23;;
2474;SDS011;1248;48.694;10.160;2022-09-12T08:09:02;10.63;;;9.37;;
2474;SDS011;1248;48.694;10.160;2022-09-12T08:11:31;13.97;;;10.63;;
2474;SDS011;1248;48.694;10.160;2022-09-12T08:13:58;13.30;;;9.93;;
2474;SDS011;1248;48.694;10.160;2022-09-12T08:16:28;11.30;;;9.87;;
2474;SDS011;1248;48.694;10.160;2022-09-12T08:18:56;9.03;;;8.10;;
2474;SDS011;1248;48.694;10.160;2022-09-12T08:21:26;9.90;;;7.43;;
2474;SDS011;1248;48.694;10.160;2022-09-12T08:23:54;8.63;;;7.10;;
2474;SDS011;1248;48.694;10.160;2022-09-12T08:26:22;7.70;;;6.73;;
2474;SDS011;1248;48.694;10.160;2022-09-12T08:28:51;9.27;;;6.80;;
2474;SDS011;1248;48.694;10.160;2022-09-12T08:31:19;8.50;;;7.13;;
2474;SDS011;1248;48.694;10.160;2022-09-12T08:33:47;8.97;;;6.40;;
2474;SDS011;1248;48.694;10.160;2022-09-12T08:36:14;9.60;;;7.07;;
2474;SDS011;1248;48.694;10.160;2022-09-12T08:38:42;6.97;;;6.27;;
2474;SDS011;1248;48.694;10.160;2022-09-12T08:41:11;8.27;;;6.67;;
2474;SDS011;1248;48.694;10.160;2022-09-12T08:43:48;7.10;;;6.47;;
2474;SDS011;1248;48.694;10.160;2022-09-12T08:46:26;8.73;;;6.80;;
2474;SDS011;1248;48.694;10.160;2022-09-12T08:48:58;8.73;;;6.03;;
2474;SDS011;1248;48.694;10.160;2022-09-12T08:51:26;7.27;;;5.83;;
2474;SDS011;1248;48.694;10.160;2022-09-12T08:53:54;11.10;;;6.70;;
2474;SDS011;1248;48.694;10.160;2022-09-12T08:56:21;6.00;;;5.50;;
2474;SDS011;1248;48.694;10.160;2022-09-12T08:58:49;6.60;;;6.00;;
2474;SDS011;1248;48.694;10.160;2022-09-12T09:01:20;6.83;;;5.83;;
2474;SDS011;1248;48.694;10.160;2022-09-12T09:04:04;6.70;;;5.43;;
2474;SDS011;1248;48.694;10.160;2022-09-12T09:06:45;6.77;;;5.50;;
2474;SDS011;1248;48.694;10.160;2022-09-12T09:09:24;6.23;;;4.77;;
2474;SDS011;1248;48.694;10.160;2022-09-12T09:12:03;5.80;;;4.50;;
2474;SDS011;1248;48.694;10.160;2022-09-12T09:14:39;5.87;;;4.50;;
2474;SDS011;1248;48.694;10.160;2022-09-12T09:17:15;5.47;;;4.27;;
2474;SDS011;1248;48.694;10.160;2022-09-12T09:19:47;5.17;;;4.50;;
2474;SDS011;1248;48.694;10.160;2022-09-12T09:22:20;6.23;;;4.80;;
2474;SDS011;1248;48.694;10.160;2022-09-12T09:24:57;4.47;;;4.07;;
2474;SDS011;1248;48.694;10.160;2022-09-12T09:27:28;4.53;;;4.00;;
2474;SDS011;1248;48.694;10.160;2022-09-12T09:29:58;4.50;;;3.90;;
2474;SDS011;1248;48.694;10.160;2022-09-12T09:32:27;3.80;;;3.40;;
2474;SDS011;1248;48.694;10.160;2022-09-12T09:34:56;5.20;;;3.70;;
2474;SDS011;1248;48.694;10.160;2022-09-12T09:37:27;3.83;;;3.43;;
2474;SDS011;1248;48.694;10.160;2022-09-12T09:40:00;4.10;;;3.10;;
2474;SDS011;1248;48.694;10.160;2022-09-12T09:42:34;4.27;;;3.87;;
2474;SDS011;1248;48.694;10.160;2022-09-12T09:45:10;5.67;;;4.00;;
2474;SDS011;1248;48.694;10.160;2022-09-12T09:47:42;3.37;;;3.00;;
2474;SDS011;1248;48.694;10.160;2022-09-12T09:50:12;4.57;;;4.13;;
2474;SDS011;1248;48.694;10.160;2022-09-12T09:52:41;3.60;;;3.30;;
2474;SDS011;1248;48.694;10.160;2022-09-12T09:55:11;4.63;;;3.40;;
2474;SDS011;1248;48.694;10.160;2022-09-12T09:57:41;4.20;;;3.70;;
2474;SDS011;1248;48.694;10.160;2022-09-12T10:00:19;4.50;;;3.63;;
2474;SDS011;1248;48.694;10.160;2022-09-12T10:02:59;3.60;;;3.30;;
2474;SDS011;1248;48.694;10.160;2022-09-12T10:05:27;4.80;;;3.90;;
2474;SDS011;1248;48.694;10.160;2022-09-12T10:07:56;4.50;;;3.40;;
2474;SDS011;1248;48.694;10.160;2022-09-12T10:10:23;4.43;;;3.30;;
2474;SDS011;1248;48.694;10.160;2022-09-12T10:12:51;3.73;;;3.43;;
2474;SDS011;1248;48.694;10.160;2022-09-12T10:15:33;3.70;;;3.40;;
2474;SDS011;1248;48.694;10.160;2022-09-12T10:18:01;2.93;;;2.63;;
2474;SDS011;1248;48.694;10.160;2022-09-12T10:20:29;3.30;;;3.00;;
2474;SDS011;1248;48.694;10.160;2022-09-12T10:22:58;3.97;;;3.50;;
2474;SDS011;1248;48.694;10.160;2022-09-12T10:25:26;3.27;;;2.97;;
2474;SDS011;1248;48.694;10.160;2022-09-12T10:27:55;3.17;;;2.83;;
2474;SDS011;1248;48.694;10.160;2022-09-12T10:30:23;4.07;;;2.90;;
2474;SDS011;1248;48.694;10.160;2022-09-12T10:32:52;3.70;;;3.30;;
2474;SDS011;1248;48.694;10.160;2022-09-12T10:35:23;3.20;;;3.00;;
2474;SDS011;1248;48.694;10.160;2022-09-12T10:37:54;3.87;;;3.57;;
2474;SDS011;1248;48.694;10.160;2022-09-12T10:40:23;3.67;;;3.10;;
2474;SDS011;1248;48.694;10.160;2022-09-12T10:42:53;4.20;;;3.30;;
2474;SDS011;1248;48.694;10.160;2022-09-12T10:45:24;3.27;;;2.47;;
2474;SDS011;1248;48.694;10.160;2022-09-12T10:47:54;2.63;;;2.20;;
2474;SDS011;1248;48.694;10.160;2022-09-12T10:50:25;2.80;;;2.50;;
2474;SDS011;1248;48.694;10.160;2022-09-12T10:53:11;3.70;;;2.70;;
2474;SDS011;1248;48.694;10.160;2022-09-12T10:55:40;2.93;;;2.73;;
2474;SDS011;1248;48.694;10.160;2022-09-12T10:58:26;2.83;;;2.60;;
2474;SDS011;1248;48.694;10.160;2022-09-12T11:01:01;3.90;;;3.00;;
2474;SDS011;1248;48.694;10.160;2022-09-12T11:03:38;5.00;;;2.60;;
2474;SDS011;1248;48.694;10.160;2022-09-12T11:06:14;2.53;;;2.33;;
2474;SDS011;1248;48.694;10.160;2022-09-12T11:08:54;3.90;;;2.70;;
2474;SDS011;1248;48.694;10.160;2022-09-12T11:11:32;2.60;;;2.40;;
2474;SDS011;1248;48.694;10.160;2022-09-12T11:14:17;2.90;;;2.70;;
2474;SDS011;1248;48.694;10.160;2022-09-12T11:16:54;2.40;;;2.20;;
2474;SDS011;1248;48.694;10.160;2022-09-12T11:22:35;3.13;;;2.83;;
2474;SDS011;1248;48.694;10.160;2022-09-12T11:25:13;3.57;;;2.70;;
2474;SDS011;1248;48.694;10.160;2022-09-12T11:27:53;3.87;;;2.20;;
2474;SDS011;1248;48.694;10.160;2022-09-12T11:30:41;3.50;;;2.37;;
2474;SDS011;1248;48.694;10.160;2022-09-12T11:33:23;2.40;;;2.20;;
2474;SDS011;1248;48.694;10.160;2022-09-12T11:35:54;2.50;;;2.30;;
2474;SDS011;1248;48.694;10.160;2022-09-12T11:38:27;2.63;;;2.43;;
2474;SDS011;1248;48.694;10.160;2022-09-12T11:41:05;2.83;;;2.63;;
2474;SDS011;1248;48.694;10.160;2022-09-12T11:43:36;2.60;;;2.40;;
2474;SDS011;1248;48.694;10.160;2022-09-12T11:46:08;2.57;;;2.37;;
2474;SDS011;1248;48.694;10.160;2022-09-12T11:48:41;2.40;;;2.20;;
2474;SDS011;1248;48.694;10.160;2022-09-12T11:51:15;1.97;;;1.83;;
2474;SDS011;1248;48.694;10.160;2022-09-12T11:53:45;2.10;;;1.97;;
2474;SDS011;1248;48.694;10.160;2022-09-12T11:56:16;2.67;;;2.47;;
2474;SDS011;1248;48.694;10.160;2022-09-12T11:58:45;3.00;;;2.70;;
2474;SDS011;1248;48.694;10.160;2022-09-12T12:01:18;3.63;;;2.40;;
2474;SDS011;1248;48.694;10.160;2022-09-12T12:03:47;3.37;;;2.57;;
2474;SDS011;1248;48.694;10.160;2022-09-12T12:06:17;4.57;;;2.63;;
2474;SDS011;1248;48.694;10.160;2022-09-12T12:08:48;2.57;;;2.30;;
2474;SDS011;1248;48.694;10.160;2022-09-12T12:11:23;2.50;;;2.30;;
2474;SDS011;1248;48.694;10.160;2022-09-12T12:13:53;3.03;;;2.70;;
2474;SDS011;1248;48.694;10.160;2022-09-12T12:16:24;2.43;;;2.17;;
2474;SDS011;1248;48.694;10.160;2022-09-12T12:18:52;2.47;;;2.27;;
2474;SDS011;1248;48.694;10.160;2022-09-12T12:21:31;2.23;;;2.13;;
2474;SDS011;1248;48.694;10.160;2022-09-12T12:24:10;2.27;;;2.07;;
2474;SDS011;1248;48.694;10.160;2022-09-12T12:26:43;3.30;;;2.20;;
2474;SDS011;1248;48.694;10.160;2022-09-12T12:29:34;8.03;;;2.63;;
2474;SDS011;1248;48.694;10.160;2022-09-12T12:32:21;2.97;;;2.20;;
2474;SDS011;1248;48.694;10.160;2022-09-12T12:34:50;3.37;;;2.23;;
2474;SDS011;1248;48.694;10.160;2022-09-12T12:37:49;3.30;;;2.50;;
2474;SDS011;1248;48.694;10.160;2022-09-12T12:46:00;3.60;;;2.27;;
2474;SDS011;1248;48.694;10.160;2022-09-12T12:48:31;2.23;;;2.03;;
2474;SDS011;1248;48.694;10.160;2022-09-12T12:51:14;2.23;;;2.03;;
2474;SDS011;1248;48.694;10.160;2022-09-12T12:53:48;2.40;;;2.20;;
2474;SDS011;1248;48.694;10.160;2022-09-12T12:56:27;2.77;;;2.57;;
2474;SDS011;1248;48.694;10.160;2022-09-12T12:58:58;2.43;;;2.23;;
2474;SDS011;1248;48.694;10.160;2022-09-12T13:01:27;3.70;;;2.67;;
2474;SDS011;1248;48.694;10.160;2022-09-12T13:03:55;5.60;;;2.17;;
2474;SDS011;1248;48.694;10.160;2022-09-12T13:06:28;2.50;;;2.30;;
2474;SDS011;1248;48.694;10.160;2022-09-12T13:08:59;2.47;;;2.27;;
2474;SDS011;1248;48.694;10.160;2022-09-12T13:11:29;2.80;;;2.30;;
2474;SDS011;1248;48.694;10.160;2022-09-12T13:13:59;2.63;;;2.27;;
2474;SDS011;1248;48.694;10.160;2022-09-12T13:16:28;2.20;;;2.00;;
2474;SDS011;1248;48.694;10.160;2022-09-12T13:18:59;3.70;;;2.40;;
2474;SDS011;1248;48.694;10.160;2022-09-12T13:21:29;2.80;;;2.30;;
2474;SDS011;1248;48.694;10.160;2022-09-12T13:23:59;2.90;;;2.53;;
2474;SDS011;1248;48.694;10.160;2022-09-12T13:26:27;2.77;;;2.50;;
2474;SDS011;1248;48.694;10.160;2022-09-12T13:29:09;2.23;;;2.03;;
2474;SDS011;1248;48.694;10.160;2022-09-12T13:31:40;2.87;;;2.30;;
2474;SDS011;1248;48.694;10.160;2022-09-12T13:34:08;3.07;;;2.07;;
2474;SDS011;1248;48.694;10.160;2022-09-12T13:36:38;3.03;;;2.37;;
2474;SDS011;1248;48.694;10.160;2022-09-12T13:39:14;1.70;;;1.60;;
2474;SDS011;1248;48.694;10.160;2022-09-12T13:45:04;2.40;;;1.93;;
2474;SDS011;1248;48.694;10.160;2022-09-12T13:47:37;2.57;;;1.93;;
2474;SDS011;1248;48.694;10.160;2022-09-12T13:50:06;2.13;;;1.93;;
2474;SDS011;1248;48.694;10.160;2022-09-12T13:52:34;2.63;;;1.80;;
2474;SDS011;1248;48.694;10.160;2022-09-12T13:55:04;2.93;;;2.30;;
2474;SDS011;1248;48.694;10.160;2022-09-12T13:57:34;3.20;;;1.97;;
2474;SDS011;1248;48.694;10.160;2022-09-12T14:00:05;2.40;;;2.20;;
2474;SDS011;1248;48.694;10.160;2022-09-12T14:02:38;2.57;;;1.80;;
2474;SDS011;1248;48.694;10.160;2022-09-12T14:05:12;2.20;;;2.00;;
2474;SDS011;1248;48.694;10.160;2022-09-12T14:07:48;2.60;;;1.50;;
2474;SDS011;1248;48.694;10.160;2022-09-12T14:10:20;2.13;;;1.60;;
2474;SDS011;1248;48.694;10.160;2022-09-12T14:12:52;2.17;;;1.43;;
2474;SDS011;1248;48.694;10.160;2022-09-12T14:15:23;1.57;;;1.47;;
2474;SDS011;1248;48.694;10.160;2022-09-12T14:17:52;1.70;;;1.60;;
2474;SDS011;1248;48.694;10.160;2022-09-12T14:20:21;1.83;;;1.70;;
2474;SDS011;1248;48.694;10.160;2022-09-12T14:22:49;2.10;;;1.90;;
2474;SDS011;1248;48.694;10.160;2022-09-12T14:25:18;2.37;;;1.50;;
2474;SDS011;1248;48.694;10.160;2022-09-12T14:27:46;2.60;;;1.57;;
2474;SDS011;1248;48.694;10.160;2022-09-12T14:30:19;1.70;;;1.60;;
2474;SDS011;1248;48.694;10.160;2022-09-12T14:33:03;3.47;;;1.57;;
2474;SDS011;1248;48.694;10.160;2022-09-12T14:35:31;3.07;;;1.93;;
2474;SDS011;1248;48.694;10.160;2022-09-12T14:38:04;1.47;;;1.33;;
2474;SDS011;1248;48.694;10.160;2022-09-12T14:40:32;1.70;;;1.57;;
2474;SDS011;1248;48.694;10.160;2022-09-12T14:43:12;1.70;;;1.60;;
2474;SDS011;1248;48.694;10.160;2022-09-12T14:45:49;2.00;;;1.80;;
2474;SDS011;1248;48.694;10.160;2022-09-12T14:48:20;4.23;;;1.50;;
2474;SDS011;1248;48.694;10.160;2022-09-12T14:50:47;1.77;;;1.67;;
2474;SDS011;1248;48.694;10.160;2022-09-12T14:53:20;3.23;;;2.27;;
2474;SDS011;1248;48.694;10.160;2022-09-12T14:55:51;2.90;;;1.70;;
2474;SDS011;1248;48.694;10.160;2022-09-12T14:58:22;1.70;;;1.60;;
2474;SDS011;1248;48.694;10.160;2022-09-12T15:00:54;2.53;;;1.50;;
2474;SDS011;1248;48.694;10.160;2022-09-12T15:03:26;1.80;;;1.70;;
2474;SDS011;1248;48.694;10.160;2022-09-12T15:05:55;4.50;;;1.80;;
2474;SDS011;1248;48.694;10.160;2022-09-12T15:08:22;3.57;;;1.40;;
2474;SDS011;1248;48.694;10.160;2022-09-12T15:10:49;1.87;;;1.60;;
2474;SDS011;1248;48.694;10.160;2022-09-12T15:13:18;2.20;;;1.80;;
2474;SDS011;1248;48.694;10.160;2022-09-12T15:15:47;2.13;;;1.67;;